sensor_id;sensor_type;location;lat;lon;timestamp;pressure;altitude;pressure_sealevel;temperature;humidity
78016;BME280;67223;51.102;5.882;2023-04-25T00:01:30;100925.16;;;7.28;73.53
78016;BME280;67223;51.102;5.882;2023-04-25T00:03:57;100929.97;;;7.09;74.32
78016;BME280;67223;51.102;5.882;2023-04-25T00:06:22;100940.34;;;6.99;74.62
78016;BME280;67223;51.102;5.882;2023-04-25T00:08:52;100940.31;;;6.86;75.02
78016;BME280;67223;51.102;5.882;2023-04-25T00:11:18;100947.75;;;6.94;75.48
78016;BME280;67223;51.102;5.882;2023-04-25T00:13:43;100946.66;;;6.84;74.88
78016;BME280;67223;51.102;5.882;2023-04-25T00:16:09;100945.41;;;6.89;74.64
78016;BME280;67223;51.102;5.882;2023-04-25T00:18:34;100941.34;;;6.84;74.80
78016;BME280;67223;51.102;5.882;2023-04-25T00:21:00;100945.66;;;6.99;74.96
78016;BME280;67223;51.102;5.882;2023-04-25T00:23:25;100941.00;;;7.03;74.46
78016;BME280;67223;51.102;5.882;2023-04-25T00:25:51;100941.47;;;7.09;74.35
78016;BME280;67223;51.102;5.882;2023-04-25T00:28:16;100944.50;;;6.76;74.79
78016;BME280;67223;51.102;5.882;2023-04-25T00:30:42;100942.31;;;6.69;75.39
78016;BME280;67223;51.102;5.882;2023-04-25T00:33:08;100945.44;;;6.75;75.46
78016;BME280;67223;51.102;5.882;2023-04-25T00:35:35;100940.03;;;6.63;76.15
78016;BME280;67223;51.102;5.882;2023-04-25T00:38:00;100949.28;;;6.57;76.31
78016;BME280;67223;51.102;5.882;2023-04-25T00:40:26;100942.44;;;6.53;77.08
78016;BME280;67223;51.102;5.882;2023-04-25T00:42:52;100940.75;;;6.52;76.88
78016;BME280;67223;51.102;5.882;2023-04-25T00:45:19;100943.13;;;6.57;76.67
78016;BME280;67223;51.102;5.882;2023-04-25T00:47:45;100934.91;;;6.74;76.28
78016;BME280;67223;51.102;5.882;2023-04-25T00:50:11;100946.88;;;6.67;76.16
78016;BME280;67223;51.102;5.882;2023-04-25T00:52:41;100937.59;;;6.60;75.89
78016;BME280;67223;51.102;5.882;2023-04-25T00:55:08;100940.53;;;6.55;76.39
78016;BME280;67223;51.102;5.882;2023-04-25T00:57:34;100938.91;;;6.53;76.28
78016;BME280;67223;51.102;5.882;2023-04-25T01:00:00;100943.94;;;6.71;75.96
78016;BME280;67223;51.102;5.882;2023-04-25T01:02:26;100941.75;;;6.64;76.10
78016;BME280;67223;51.102;5.882;2023-04-25T01:04:52;100945.47;;;6.61;76.33
78016;BME280;67223;51.102;5.882;2023-04-25T01:07:18;100943.97;;;6.57;76.52
78016;BME280;67223;51.102;5.882;2023-04-25T01:09:43;100945.28;;;6.50;76.82
78016;BME280;67223;51.102;5.882;2023-04-25T01:12:09;100943.34;;;6.80;76.08
78016;BME280;67223;51.102;5.882;2023-04-25T01:14:34;100942.06;;;6.59;76.44
78016;BME280;67223;51.102;5.882;2023-04-25T01:17:00;100947.75;;;6.67;76.49
78016;BME280;67223;51.102;5.882;2023-04-25T01:19:25;100940.59;;;6.68;76.15
78016;BME280;67223;51.102;5.882;2023-04-25T01:21:51;100944.59;;;6.75;76.07
78016;BME280;67223;51.102;5.882;2023-04-25T01:24:17;100950.69;;;6.48;76.52
78016;BME280;67223;51.102;5.882;2023-04-25T01:26:42;100944.97;;;6.69;76.39
78016;BME280;67223;51.102;5.882;2023-04-25T01:29:15;100946.88;;;6.67;75.90
78016;BME280;67223;51.102;5.882;2023-04-25T01:31:41;100949.13;;;6.73;76.14
78016;BME280;67223;51.102;5.882;2023-04-25T01:34:07;100945.66;;;6.72;76.17
78016;BME280;67223;51.102;5.882;2023-04-25T01:36:34;100959.09;;;6.69;76.47
78016;BME280;67223;51.102;5.882;2023-04-25T01:39:00;100954.00;;;6.66;76.35
78016;BME280;67223;51.102;5.882;2023-04-25T01:41:27;100954.25;;;6.76;76.13
78016;BME280;67223;51.102;5.882;2023-04-25T01:43:52;100952.94;;;6.69;76.58
78016;BME280;67223;51.102;5.882;2023-04-25T01:46:18;100952.75;;;6.58;76.52
78016;BME280;67223;51.102;5.882;2023-04-25T01:48:43;100961.00;;;6.39;77.16
78016;BME280;67223;51.102;5.882;2023-04-25T01:51:09;100957.72;;;6.35;77.57
78016;BME280;67223;51.102;5.882;2023-04-25T01:53:37;100958.06;;;6.43;77.50
78016;BME280;67223;51.102;5.882;2023-04-25T01:56:02;100964.44;;;6.41;77.97
78016;BME280;67223;51.102;5.882;2023-04-25T01:58:28;100962.53;;;6.43;77.88
78016;BME280;67223;51.102;5.882;2023-04-25T02:00:53;100968.78;;;6.56;77.95
78016;BME280;67223;51.102;5.882;2023-04-25T02:03:19;100968.31;;;6.49;78.33
78016;BME280;67223;51.102;5.882;2023-04-25T02:05:44;100972.19;;;6.44;77.70
78016;BME280;67223;51.102;5.882;2023-04-25T02:08:10;100970.22;;;6.47;78.40
78016;BME280;67223;51.102;5.882;2023-04-25T02:10:36;100973.34;;;6.40;78.45
78016;BME280;67223;51.102;5.882;2023-04-25T02:13:01;100966.16;;;6.42;78.52
78016;BME280;67223;51.102;5.882;2023-04-25T02:15:27;100973.34;;;6.40;78.47
78016;BME280;67223;51.102;5.882;2023-04-25T02:17:52;100968.13;;;6.24;79.05
78016;BME280;67223;51.102;5.882;2023-04-25T02:20:20;100977.69;;;6.55;78.46
78016;BME280;67223;51.102;5.882;2023-04-25T02:22:46;100962.34;;;6.46;78.36
78016;BME280;67223;51.102;5.882;2023-04-25T02:25:12;100975.41;;;6.49;78.63
78016;BME280;67223;51.102;5.882;2023-04-25T02:27:38;100964.22;;;6.58;78.52
78016;BME280;67223;51.102;5.882;2023-04-25T02:30:04;100974.00;;;6.43;78.89
78016;BME280;67223;51.102;5.882;2023-04-25T02:32:30;100971.63;;;6.39;78.99
78016;BME280;67223;51.102;5.882;2023-04-25T02:34:55;100977.50;;;6.44;79.19
78016;BME280;67223;51.102;5.882;2023-04-25T02:37:24;100975.97;;;6.54;78.97
78016;BME280;67223;51.102;5.882;2023-04-25T02:39:49;100968.78;;;6.56;78.64
78016;BME280;67223;51.102;5.882;2023-04-25T02:42:15;100978.53;;;6.56;78.82
78016;BME280;67223;51.102;5.882;2023-04-25T02:44:40;100979.41;;;6.56;78.85
78016;BME280;67223;51.102;5.882;2023-04-25T02:47:05;100975.41;;;6.35;79.29
78016;BME280;67223;51.102;5.882;2023-04-25T02:49:31;100985.16;;;6.63;78.92
78016;BME280;67223;51.102;5.882;2023-04-25T02:51:56;100976.34;;;6.48;78.96
78016;BME280;67223;51.102;5.882;2023-04-25T02:54:22;100971.06;;;6.62;78.95
78016;BME280;67223;51.102;5.882;2023-04-25T02:56:51;100970.03;;;6.51;79.01
78016;BME280;67223;51.102;5.882;2023-04-25T02:59:16;100979.13;;;6.46;79.33
78016;BME280;67223;51.102;5.882;2023-04-25T03:04:18;100972.28;;;6.28;79.20
78016;BME280;67223;51.102;5.882;2023-04-25T03:06:44;100974.75;;;6.60;79.24
78016;BME280;67223;51.102;5.882;2023-04-25T03:09:10;100968.97;;;6.53;78.91
78016;BME280;67223;51.102;5.882;2023-04-25T03:11:38;100973.34;;;6.40;79.10
78016;BME280;67223;51.102;5.882;2023-04-25T03:14:04;100980.34;;;6.41;79.45
78016;BME280;67223;51.102;5.882;2023-04-25T03:16:29;100976.19;;;6.37;79.51
78016;BME280;67223;51.102;5.882;2023-04-25T03:18:56;100978.84;;;6.37;79.40
78016;BME280;67223;51.102;5.882;2023-04-25T03:21:21;100977.63;;;6.42;79.31
78016;BME280;67223;51.102;5.882;2023-04-25T03:23:47;100983.09;;;6.39;79.81
78016;BME280;67223;51.102;5.882;2023-04-25T03:26:12;100981.50;;;6.51;79.61
78016;BME280;67223;51.102;5.882;2023-04-25T03:28:37;100980.22;;;6.28;79.38
78016;BME280;67223;51.102;5.882;2023-04-25T03:31:04;100983.66;;;6.44;79.24
78016;BME280;67223;51.102;5.882;2023-04-25T03:33:30;100979.69;;;6.37;79.33
78016;BME280;67223;51.102;5.882;2023-04-25T03:35:55;100976.56;;;6.45;79.28
78016;BME280;67223;51.102;5.882;2023-04-25T03:38:21;100979.22;;;6.45;79.10
78016;BME280;67223;51.102;5.882;2023-04-25T03:40:46;100982.91;;;6.42;78.90
78016;BME280;67223;51.102;5.882;2023-04-25T03:43:11;100984.44;;;6.46;79.23
78016;BME280;67223;51.102;5.882;2023-04-25T03:45:37;100982.88;;;6.28;79.19
78016;BME280;67223;51.102;5.882;2023-04-25T03:48:02;100983.16;;;6.24;79.20
78016;BME280;67223;51.102;5.882;2023-04-25T03:50:30;100994.34;;;6.43;79.27
78016;BME280;67223;51.102;5.882;2023-04-25T03:52:56;100990.88;;;6.42;79.42
78016;BME280;67223;51.102;5.882;2023-04-25T03:55:21;100991.13;;;6.38;79.71
78016;BME280;67223;51.102;5.882;2023-04-25T03:57:47;100998.91;;;6.41;79.35
78016;BME280;67223;51.102;5.882;2023-04-25T04:00:12;100995.22;;;6.43;79.19
78016;BME280;67223;51.102;5.882;2023-04-25T04:02:38;100985.75;;;6.25;79.54
78016;BME280;67223;51.102;5.882;2023-04-25T04:05:04;100995.63;;;6.37;79.31
78016;BME280;67223;51.102;5.882;2023-04-25T04:07:30;101001.84;;;6.51;79.54
78016;BME280;67223;51.102;5.882;2023-04-25T04:09:58;100998.63;;;6.45;79.58
78016;BME280;67223;51.102;5.882;2023-04-25T04:12:23;100998.34;;;6.50;79.04
78016;BME280;67223;51.102;5.882;2023-04-25T04:14:49;101005.38;;;6.37;78.89
78016;BME280;67223;51.102;5.882;2023-04-25T04:17:14;101013.69;;;6.45;78.94
78016;BME280;67223;51.102;5.882;2023-04-25T04:19:40;101011.31;;;6.40;79.47
78016;BME280;67223;51.102;5.882;2023-04-25T04:22:05;101016.91;;;6.50;79.16
78016;BME280;67223;51.102;5.882;2023-04-25T04:24:31;101014.63;;;6.44;79.62
78016;BME280;67223;51.102;5.882;2023-04-25T04:26:56;101005.72;;;6.31;79.45
78016;BME280;67223;51.102;5.882;2023-04-25T04:29:22;101018.44;;;6.54;79.60
78016;BME280;67223;51.102;5.882;2023-04-25T04:31:49;101013.31;;;6.37;79.55
78016;BME280;67223;51.102;5.882;2023-04-25T04:34:16;101017.28;;;6.44;79.58
78016;BME280;67223;51.102;5.882;2023-04-25T04:36:42;101013.41;;;6.35;79.69
78016;BME280;67223;51.102;5.882;2023-04-25T04:39:07;101027.03;;;6.43;79.80
78016;BME280;67223;51.102;5.882;2023-04-25T04:41:34;101025.25;;;6.58;79.31
78016;BME280;67223;51.102;5.882;2023-04-25T04:43:59;101024.69;;;6.53;79.37
78016;BME280;67223;51.102;5.882;2023-04-25T04:46:26;101034.25;;;6.56;79.84
78016;BME280;67223;51.102;5.882;2023-04-25T04:48:53;101033.69;;;6.51;79.56
78016;BME280;67223;51.102;5.882;2023-04-25T04:51:19;101034.44;;;6.53;79.30
78016;BME280;67223;51.102;5.882;2023-04-25T04:53:44;101044.56;;;6.32;79.29
78016;BME280;67223;51.102;5.882;2023-04-25T04:56:10;101038.63;;;6.42;79.08
78016;BME280;67223;51.102;5.882;2023-04-25T04:58:36;101042.78;;;6.61;78.75
78016;BME280;67223;51.102;5.882;2023-04-25T05:01:02;101046.09;;;6.50;78.76
78016;BME280;67223;51.102;5.882;2023-04-25T05:03:27;101044.09;;;6.39;78.77
78016;BME280;67223;51.102;5.882;2023-04-25T05:05:53;101035.00;;;6.58;78.64
78016;BME280;67223;51.102;5.882;2023-04-25T05:08:18;101050.56;;;6.49;79.07
78016;BME280;67223;51.102;5.882;2023-04-25T05:10:44;101052.34;;;6.63;78.73
78016;BME280;67223;51.102;5.882;2023-04-25T05:13:09;101059.47;;;6.77;78.21
78016;BME280;67223;51.102;5.882;2023-04-25T05:15:35;101067.53;;;6.75;78.26
78016;BME280;67223;51.102;5.882;2023-04-25T05:18:01;101074.84;;;6.72;77.93
78016;BME280;67223;51.102;5.882;2023-04-25T05:20:27;101068.19;;;6.65;78.04
78016;BME280;67223;51.102;5.882;2023-04-25T05:22:52;101066.38;;;6.79;77.40
78016;BME280;67223;51.102;5.882;2023-04-25T05:25:18;101074.84;;;6.72;77.28
78016;BME280;67223;51.102;5.882;2023-04-25T05:27:43;101087.13;;;6.73;77.64
78016;BME280;67223;51.102;5.882;2023-04-25T05:30:09;101089.34;;;6.80;76.93
78016;BME280;67223;51.102;5.882;2023-04-25T05:32:35;101085.91;;;6.78;77.38
78016;BME280;67223;51.102;5.882;2023-04-25T05:35:01;101083.81;;;6.83;77.44
78016;BME280;67223;51.102;5.882;2023-04-25T05:37:26;101090.63;;;6.87;77.50
78016;BME280;67223;51.102;5.882;2023-04-25T05:39:52;101099.00;;;6.96;77.28
78016;BME280;67223;51.102;5.882;2023-04-25T05:42:17;101099.38;;;6.89;76.79
78016;BME280;67223;51.102;5.882;2023-04-25T05:44:42;101099.56;;;6.86;76.91
78016;BME280;67223;51.102;5.882;2023-04-25T05:47:08;101095.41;;;6.97;76.33
78016;BME280;67223;51.102;5.882;2023-04-25T05:49:34;101099.00;;;6.96;76.17
78016;BME280;67223;51.102;5.882;2023-04-25T05:51:59;101101.00;;;7.06;75.95
78016;BME280;67223;51.102;5.882;2023-04-25T05:54:25;101107.16;;;7.07;75.40
78016;BME280;67223;51.102;5.882;2023-04-25T05:56:50;101111.25;;;7.12;75.47
78016;BME280;67223;51.102;5.882;2023-04-25T05:59:16;101111.31;;;7.11;75.44
78016;BME280;67223;51.102;5.882;2023-04-25T06:01:41;101120.16;;;7.11;74.97
78016;BME280;67223;51.102;5.882;2023-04-25T06:04:07;101112.28;;;7.10;75.09
78016;BME280;67223;51.102;5.882;2023-04-25T06:06:32;101116.56;;;7.12;75.60
78016;BME280;67223;51.102;5.882;2023-04-25T06:08:58;101122.41;;;7.17;75.22
78016;BME280;67223;51.102;5.882;2023-04-25T06:11:23;101117.94;;;7.18;75.30
78016;BME280;67223;51.102;5.882;2023-04-25T06:13:49;101123.81;;;7.23;74.95
78016;BME280;67223;51.102;5.882;2023-04-25T06:16:14;101122.25;;;7.47;75.61
78016;BME280;67223;51.102;5.882;2023-04-25T06:18:40;101118.50;;;7.37;75.69
78016;BME280;67223;51.102;5.882;2023-04-25T06:21:06;101131.00;;;7.49;74.89
78016;BME280;67223;51.102;5.882;2023-04-25T06:23:31;101123.66;;;7.67;75.31
78016;BME280;67223;51.102;5.882;2023-04-25T06:25:57;101134.47;;;7.64;75.08
78016;BME280;67223;51.102;5.882;2023-04-25T06:28:22;101133.63;;;7.63;74.55
78016;BME280;67223;51.102;5.882;2023-04-25T06:30:49;101139.66;;;7.79;74.82
78016;BME280;67223;51.102;5.882;2023-04-25T06:33:15;101143.25;;;7.78;74.11
78016;BME280;67223;51.102;5.882;2023-04-25T06:35:40;101142.81;;;7.72;73.71
78016;BME280;67223;51.102;5.882;2023-04-25T06:38:06;101143.47;;;7.75;73.23
78016;BME280;67223;51.102;5.882;2023-04-25T06:40:31;101153.53;;;8.11;73.45
78016;BME280;67223;51.102;5.882;2023-04-25T06:42:57;101156.38;;;7.67;73.42
78016;BME280;67223;51.102;5.882;2023-04-25T06:45:23;101152.72;;;7.97;72.79
78016;BME280;67223;51.102;5.882;2023-04-25T06:47:48;101153.16;;;8.30;71.88
78016;BME280;67223;51.102;5.882;2023-04-25T06:50:14;101161.16;;;8.30;72.68
78016;BME280;67223;51.102;5.882;2023-04-25T06:52:39;101150.66;;;8.27;71.43
78016;BME280;67223;51.102;5.882;2023-04-25T06:55:05;101160.75;;;8.36;70.56
78016;BME280;67223;51.102;5.882;2023-04-25T06:57:31;101160.22;;;8.44;69.91
78016;BME280;67223;51.102;5.882;2023-04-25T06:59:56;101159.72;;;8.51;69.90
78016;BME280;67223;51.102;5.882;2023-04-25T07:02:22;101160.53;;;8.39;69.50
78016;BME280;67223;51.102;5.882;2023-04-25T07:04:47;101169.38;;;8.52;68.83
78016;BME280;67223;51.102;5.882;2023-04-25T07:07:13;101164.91;;;8.53;67.96
78016;BME280;67223;51.102;5.882;2023-04-25T07:09:39;101161.72;;;8.48;67.24
78016;BME280;67223;51.102;5.882;2023-04-25T07:12:05;101175.66;;;8.39;66.99
78016;BME280;67223;51.102;5.882;2023-04-25T07:14:30;101164.50;;;8.46;67.34
78016;BME280;67223;51.102;5.882;2023-04-25T07:16:56;101170.78;;;8.45;66.66
78016;BME280;67223;51.102;5.882;2023-04-25T07:19:22;101170.81;;;8.71;65.92
78016;BME280;67223;51.102;5.882;2023-04-25T07:21:51;101174.25;;;8.85;64.87
78016;BME280;67223;51.102;5.882;2023-04-25T07:24:16;101180.31;;;8.75;65.60
78016;BME280;67223;51.102;5.882;2023-04-25T07:26:42;101181.28;;;8.99;64.70
78016;BME280;67223;51.102;5.882;2023-04-25T07:29:08;101182.56;;;9.06;64.72
78016;BME280;67223;51.102;5.882;2023-04-25T07:31:34;101188.97;;;9.16;65.37
78016;BME280;67223;51.102;5.882;2023-04-25T07:34:00;101182.31;;;9.22;64.79
78016;BME280;67223;51.102;5.882;2023-04-25T07:36:26;101189.69;;;9.18;64.42
78016;BME280;67223;51.102;5.882;2023-04-25T07:38:52;101193.63;;;9.13;64.38
78016;BME280;67223;51.102;5.882;2023-04-25T07:41:17;101201.50;;;9.27;63.26
78016;BME280;67223;51.102;5.882;2023-04-25T07:43:43;101199.16;;;8.97;63.12
78016;BME280;67223;51.102;5.882;2023-04-25T07:46:08;101202.38;;;9.15;62.35
78016;BME280;67223;51.102;5.882;2023-04-25T07:48:34;101208.00;;;9.48;63.34
78016;BME280;67223;51.102;5.882;2023-04-25T07:50:59;101211.41;;;9.50;61.98
78016;BME280;67223;51.102;5.882;2023-04-25T07:53:24;101207.25;;;9.59;62.57
78016;BME280;67223;51.102;5.882;2023-04-25T07:55:50;101211.75;;;9.45;62.29
78016;BME280;67223;51.102;5.882;2023-04-25T07:58:15;101215.16;;;9.35;63.04
78016;BME280;67223;51.102;5.882;2023-04-25T08:00:46;101219.41;;;9.37;61.80
78016;BME280;67223;51.102;5.882;2023-04-25T08:03:11;101222.81;;;9.52;63.23
78016;BME280;67223;51.102;5.882;2023-04-25T08:05:37;101212.66;;;9.70;63.29
78016;BME280;67223;51.102;5.882;2023-04-25T08:08:02;101221.03;;;9.89;62.72
78016;BME280;67223;51.102;5.882;2023-04-25T08:10:28;101226.72;;;9.84;62.33
78016;BME280;67223;51.102;5.882;2023-04-25T08:12:54;101228.75;;;9.81;60.14
78016;BME280;67223;51.102;5.882;2023-04-25T08:15:19;101231.53;;;9.67;59.23
78016;BME280;67223;51.102;5.882;2023-04-25T08:17:45;101239.94;;;9.86;59.49
78016;BME280;67223;51.102;5.882;2023-04-25T08:20:11;101242.28;;;9.78;58.99
78016;BME280;67223;51.102;5.882;2023-04-25T08:22:36;101250.09;;;9.81;60.46
78016;BME280;67223;51.102;5.882;2023-04-25T08:25:02;101256.06;;;9.72;60.59
78016;BME280;67223;51.102;5.882;2023-04-25T08:27:27;101246.00;;;9.88;60.36
78016;BME280;67223;51.102;5.882;2023-04-25T08:29:53;101251.16;;;9.78;59.86
78016;BME280;67223;51.102;5.882;2023-04-25T08:32:19;101260.13;;;9.65;59.18
78016;BME280;67223;51.102;5.882;2023-04-25T08:34:45;101256.25;;;9.81;59.22
78016;BME280;67223;51.102;5.882;2023-04-25T08:37:10;101260.34;;;9.74;59.33
78016;BME280;67223;51.102;5.882;2023-04-25T08:39:36;101252.00;;;9.79;59.64
78016;BME280;67223;51.102;5.882;2023-04-25T08:42:06;101265.53;;;10.01;58.68
78016;BME280;67223;51.102;5.882;2023-04-25T08:44:35;101267.22;;;10.39;57.42
78016;BME280;67223;51.102;5.882;2023-04-25T08:47:03;101275.13;;;10.40;57.20
78016;BME280;67223;51.102;5.882;2023-04-25T08:49:31;101277.63;;;10.54;57.50
78016;BME280;67223;51.102;5.882;2023-04-25T08:51:59;101279.31;;;10.31;56.12
78016;BME280;67223;51.102;5.882;2023-04-25T08:54:27;101281.94;;;10.68;55.27
78016;BME280;67223;51.102;5.882;2023-04-25T08:56:54;101274.63;;;10.59;54.35
78016;BME280;67223;51.102;5.882;2023-04-25T08:59:21;101278.72;;;10.75;54.88
78016;BME280;67223;51.102;5.882;2023-04-25T09:01:49;101288.81;;;10.83;55.09
78016;BME280;67223;51.102;5.882;2023-04-25T09:04:15;101290.34;;;10.74;54.35
78016;BME280;67223;51.102;5.882;2023-04-25T09:06:40;101292.06;;;10.75;54.61
78016;BME280;67223;51.102;5.882;2023-04-25T09:09:08;101294.69;;;10.64;54.12
78016;BME280;67223;51.102;5.882;2023-04-25T09:11:36;101299.09;;;10.53;55.27
78016;BME280;67223;51.102;5.882;2023-04-25T09:14:19;101304.00;;;10.35;56.05
78016;BME280;67223;51.102;5.882;2023-04-25T09:19:23;101315.28;;;10.39;55.06
78016;BME280;67223;51.102;5.882;2023-04-25T09:21:50;101325.63;;;10.67;53.50
78016;BME280;67223;51.102;5.882;2023-04-25T09:24:16;101316.50;;;10.22;53.55
78016;BME280;67223;51.102;5.882;2023-04-25T09:26:41;101321.59;;;10.38;53.27
78016;BME280;67223;51.102;5.882;2023-04-25T09:29:07;101322.69;;;10.22;55.12
78016;BME280;67223;51.102;5.882;2023-04-25T09:31:33;101326.94;;;10.12;54.53
78016;BME280;67223;51.102;5.882;2023-04-25T09:33:59;101327.50;;;10.30;54.21
78016;BME280;67223;51.102;5.882;2023-04-25T09:36:29;101333.03;;;10.27;54.84
78016;BME280;67223;51.102;5.882;2023-04-25T09:38:55;101331.94;;;10.42;53.22
78016;BME280;67223;51.102;5.882;2023-04-25T09:41:24;101334.72;;;10.41;52.67
78016;BME280;67223;51.102;5.882;2023-04-25T09:43:50;101342.94;;;10.38;52.51
78016;BME280;67223;51.102;5.882;2023-04-25T09:46:16;101346.91;;;10.32;52.56
78016;BME280;67223;51.102;5.882;2023-04-25T09:48:50;101341.25;;;10.11;51.37
78016;BME280;67223;51.102;5.882;2023-04-25T09:51:16;101345.16;;;10.44;51.24
78016;BME280;67223;51.102;5.882;2023-04-25T09:53:46;101355.94;;;10.78;50.47
78016;BME280;67223;51.102;5.882;2023-04-25T09:56:14;101348.72;;;10.68;50.80
78016;BME280;67223;51.102;5.882;2023-04-25T09:58:41;101348.84;;;10.90;51.50
78016;BME280;67223;51.102;5.882;2023-04-25T10:01:08;101354.53;;;10.86;52.10
78016;BME280;67223;51.102;5.882;2023-04-25T10:03:36;101354.47;;;10.74;52.26
78016;BME280;67223;51.102;5.882;2023-04-25T10:06:22;101367.25;;;10.82;51.60
78016;BME280;67223;51.102;5.882;2023-04-25T10:08:50;101366.63;;;10.78;52.76
78016;BME280;67223;51.102;5.882;2023-04-25T10:11:16;101369.69;;;11.09;53.41
78016;BME280;67223;51.102;5.882;2023-04-25T10:13:43;101377.38;;;11.13;53.31
78016;BME280;67223;51.102;5.882;2023-04-25T10:16:09;101371.88;;;11.39;51.21
78016;BME280;67223;51.102;5.882;2023-04-25T10:18:34;101373.78;;;11.26;50.15
78016;BME280;67223;51.102;5.882;2023-04-25T10:21:02;101373.03;;;11.23;48.98
78016;BME280;67223;51.102;5.882;2023-04-25T10:23:29;101378.13;;;11.27;49.29
78016;BME280;67223;51.102;5.882;2023-04-25T10:25:55;101368.59;;;11.11;48.05
78016;BME280;67223;51.102;5.882;2023-04-25T10:28:21;101371.78;;;10.69;49.50
78016;BME280;67223;51.102;5.882;2023-04-25T10:31:01;101378.13;;;11.50;49.58
78016;BME280;67223;51.102;5.882;2023-04-25T10:33:39;101382.94;;;12.47;50.07
78016;BME280;67223;51.102;5.882;2023-04-25T10:36:18;101371.25;;;12.59;47.34
78016;BME280;67223;51.102;5.882;2023-04-25T10:38:44;101377.75;;;12.88;46.15
78016;BME280;67223;51.102;5.882;2023-04-25T10:41:11;101380.06;;;12.93;47.39
78016;BME280;67223;51.102;5.882;2023-04-25T10:48:45;101377.47;;;14.27;45.07
78016;BME280;67223;51.102;5.882;2023-04-25T10:51:14;101368.16;;;14.71;42.46
78016;BME280;67223;51.102;5.882;2023-04-25T10:53:40;101374.72;;;15.26;40.57
78016;BME280;67223;51.102;5.882;2023-04-25T10:56:16;101371.59;;;15.60;40.65
78016;BME280;67223;51.102;5.882;2023-04-25T10:58:44;101372.75;;;16.41;38.93
78016;BME280;67223;51.102;5.882;2023-04-25T11:01:09;101372.75;;;15.57;38.75
78016;BME280;67223;51.102;5.882;2023-04-25T11:03:40;101376.66;;;16.28;39.66
78016;BME280;67223;51.102;5.882;2023-04-25T11:06:15;101377.06;;;17.23;36.86
78016;BME280;67223;51.102;5.882;2023-04-25T11:08:50;101379.31;;;17.10;36.58
78016;BME280;67223;51.102;5.882;2023-04-25T11:11:19;101377.41;;;15.55;37.41
78016;BME280;67223;51.102;5.882;2023-04-25T11:13:48;101369.50;;;14.46;39.23
78016;BME280;67223;51.102;5.882;2023-04-25T11:16:14;101384.53;;;13.98;40.56
78016;BME280;67223;51.102;5.882;2023-04-25T11:18:43;101377.88;;;13.71;42.62
78016;BME280;67223;51.102;5.882;2023-04-25T11:21:09;101386.91;;;13.29;42.95
78016;BME280;67223;51.102;5.882;2023-04-25T11:23:35;101386.72;;;13.10;43.88
78016;BME280;67223;51.102;5.882;2023-04-25T11:26:02;101380.53;;;12.44;44.06
78016;BME280;67223;51.102;5.882;2023-04-25T11:28:28;101387.56;;;12.56;45.28
78016;BME280;67223;51.102;5.882;2023-04-25T11:30:53;101387.34;;;13.02;44.69
78016;BME280;67223;51.102;5.882;2023-04-25T11:33:23;101386.88;;;12.97;44.59
78016;BME280;67223;51.102;5.882;2023-04-25T11:35:50;101384.38;;;12.73;44.54
78016;BME280;67223;51.102;5.882;2023-04-25T11:38:15;101394.41;;;13.03;44.35
78016;BME280;67223;51.102;5.882;2023-04-25T11:40:41;101395.97;;;13.06;44.93
78016;BME280;67223;51.102;5.882;2023-04-25T11:43:06;101391.72;;;13.03;43.28
78016;BME280;67223;51.102;5.882;2023-04-25T11:45:32;101386.81;;;12.65;44.64
78016;BME280;67223;51.102;5.882;2023-04-25T11:47:58;101392.16;;;12.65;43.69
78016;BME280;67223;51.102;5.882;2023-04-25T11:50:23;101391.22;;;13.09;43.26
78016;BME280;67223;51.102;5.882;2023-04-25T11:52:48;101387.13;;;12.40;43.65
78016;BME280;67223;51.102;5.882;2023-04-25T11:55:16;101385.16;;;12.42;44.49
78016;BME280;67223;51.102;5.882;2023-04-25T11:57:43;101386.22;;;12.50;43.70
78016;BME280;67223;51.102;5.882;2023-04-25T12:00:15;101392.78;;;13.23;44.35
78016;BME280;67223;51.102;5.882;2023-04-25T12:02:43;101397.41;;;13.53;42.82
78016;BME280;67223;51.102;5.882;2023-04-25T12:05:10;101390.31;;;14.23;41.92
78016;BME280;67223;51.102;5.882;2023-04-25T12:07:36;101385.53;;;13.76;41.09
78016;BME280;67223;51.102;5.882;2023-04-25T12:10:07;101391.50;;;13.38;42.01
78016;BME280;67223;51.102;5.882;2023-04-25T12:12:34;101396.69;;;12.65;39.80
78016;BME280;67223;51.102;5.882;2023-04-25T12:15:23;101390.88;;;12.37;39.97
78016;BME280;67223;51.102;5.882;2023-04-25T12:17:51;101402.34;;;12.93;43.09
78016;BME280;67223;51.102;5.882;2023-04-25T12:20:24;101390.91;;;12.15;44.25
78016;BME280;67223;51.102;5.882;2023-04-25T12:22:51;101404.13;;;11.94;44.88
78016;BME280;67223;51.102;5.882;2023-04-25T12:25:39;101405.22;;;11.57;47.76
78016;BME280;67223;51.102;5.882;2023-04-25T12:30:56;101430.25;;;11.21;51.64
78016;BME280;67223;51.102;5.882;2023-04-25T12:33:23;101424.75;;;11.46;50.73
78016;BME280;67223;51.102;5.882;2023-04-25T12:35:48;101421.44;;;11.08;52.87
78016;BME280;67223;51.102;5.882;2023-04-25T12:38:24;101429.28;;;11.57;52.26
78016;BME280;67223;51.102;5.882;2023-04-25T12:40:50;101430.06;;;11.11;51.19
78016;BME280;67223;51.102;5.882;2023-04-25T12:43:15;101428.06;;;11.50;50.93
78016;BME280;67223;51.102;5.882;2023-04-25T12:45:41;101435.84;;;11.53;49.70
78016;BME280;67223;51.102;5.882;2023-04-25T12:48:06;101428.44;;;11.56;49.71
78016;BME280;67223;51.102;5.882;2023-04-25T12:50:32;101432.44;;;11.51;49.00
78016;BME280;67223;51.102;5.882;2023-04-25T12:52:57;101437.66;;;11.76;49.44
78016;BME280;67223;51.102;5.882;2023-04-25T12:55:23;101432.09;;;11.79;47.34
78016;BME280;67223;51.102;5.882;2023-04-25T12:57:48;101437.97;;;11.95;48.49
78016;BME280;67223;51.102;5.882;2023-04-25T13:00:14;101453.03;;;11.96;48.85
78016;BME280;67223;51.102;5.882;2023-04-25T13:02:40;101445.13;;;11.60;49.24
78016;BME280;67223;51.102;5.882;2023-04-25T13:05:06;101456.59;;;11.38;51.99
78016;BME280;67223;51.102;5.882;2023-04-25T13:07:31;101451.03;;;11.76;51.47